Addicks, Texas
Current Conditions -  °F | °C
As of 7:53 AM on Saturday 25 Oct 2014 (Local Time) from KSGR Reporting Station
Haze Haze  
Wind Chill: 58°   Ceiling: Unl
Heat Index: 58°   Visibility: 6mi
Dew Point: 55°   Wind: 3mph
Humidity: 90%   Direction: 10°N
Pressure: 30.16"   Gusts: NA
Location:  29.7757°N, 95.6037°W
Report Text: KSGR 251253Z 01003KT 6SM BR CLR 14/13 A3016 RMK AO2 SLP213 T01440128
Loading
Personal Weather Stations






























Interactive Weather Map
Tropical Storm Tracking
New forecast layout! Learn more

10-Day Weather Forecast

Advertisements
Track Severe Weather on mobile